createdAt,value
2022-09-28T00:00:05.473Z,14.00
2022-09-28T00:02:34.499Z,12.25
2022-09-28T00:05:03.386Z,11.00
2022-09-28T00:07:31.768Z,10.50
2022-09-28T00:10:00.913Z,10.75
2022-09-28T00:12:31.908Z,11.25
2022-09-28T00:15:00.441Z,10.00
2022-09-28T00:17:28.845Z,14.50
2022-09-28T00:19:59.028Z,12.50
2022-09-28T00:22:27.381Z,10.75
2022-09-28T00:24:55.786Z,11.00
2022-09-28T00:27:24.232Z,11.50
2022-09-28T00:29:52.501Z,9.50
2022-09-28T00:32:22.527Z,13.25
2022-09-28T00:34:51.110Z,9.00
2022-09-28T00:37:20.945Z,11.25
2022-09-28T00:39:50.388Z,9.50
2022-09-28T00:42:22.309Z,10.25
2022-09-28T00:44:56.551Z,12.75
2022-09-28T00:47:43.825Z,9.00
2022-09-28T00:50:24.668Z,10.00
2022-09-28T00:53:12.168Z,13.00
2022-09-28T00:56:04.719Z,13.00
2022-09-28T00:58:42.992Z,10.75
2022-09-28T01:01:11.431Z,11.25
2022-09-28T01:03:46.163Z,11.50
2022-09-28T01:06:28.650Z,14.75
2022-09-28T01:08:59.801Z,13.75
2022-09-28T01:11:29.146Z,12.00
2022-09-28T01:13:59.000Z,9.50
2022-09-28T01:16:42.336Z,11.25
2022-09-28T01:19:10.690Z,10.25
2022-09-28T01:21:48.149Z,11.00
2022-09-28T01:24:43.229Z,9.75
2022-09-28T01:27:29.214Z,12.00
2022-09-28T01:30:14.829Z,11.75
2022-09-28T01:32:59.775Z,12.25
2022-09-28T01:35:50.250Z,9.75
2022-09-28T01:38:26.570Z,11.25
2022-09-28T01:40:57.369Z,15.50
2022-09-28T01:43:30.464Z,9.25
2022-09-28T01:46:53.118Z,9.50
2022-09-28T01:49:32.217Z,12.00
2022-09-28T01:52:17.202Z,10.50
2022-09-28T01:55:19.349Z,9.00
2022-09-28T01:58:00.147Z,11.50
2022-09-28T02:00:29.588Z,8.50
2022-09-28T02:03:17.715Z,10.25
2022-09-28T02:06:14.658Z,9.50
2022-09-28T02:08:52.693Z,11.75
2022-09-28T02:11:24.156Z,10.00
2022-09-28T02:14:15.635Z,12.50
2022-09-28T02:16:55.867Z,9.00
2022-09-28T02:19:27.907Z,9.25
2022-09-28T02:22:11.526Z,10.75
2022-09-28T02:25:14.400Z,9.00
2022-09-28T02:28:06.106Z,9.00
2022-09-28T02:30:37.705Z,10.50
2022-09-28T02:33:15.083Z,13.50
2022-09-28T02:35:44.776Z,9.50
2022-09-28T02:38:14.991Z,12.50
2022-09-28T02:40:51.671Z,9.00
2022-09-28T02:43:46.202Z,11.25
2022-09-28T02:46:32.336Z,9.75
2022-09-28T02:49:26.668Z,9.50
2022-09-28T02:52:47.081Z,8.25
2022-09-28T02:55:25.594Z,8.25
2022-09-28T02:58:13.797Z,7.75
2022-09-28T03:00:53.094Z,9.50
2022-09-28T03:03:48.366Z,8.25
2022-09-28T03:06:55.452Z,6.25
2022-09-28T03:09:44.332Z,9.00
2022-09-28T03:12:17.206Z,10.25
2022-09-28T03:14:46.496Z,6.00
2022-09-28T03:17:14.942Z,8.75
2022-09-28T03:19:43.386Z,9.25
2022-09-28T03:22:11.730Z,10.50
2022-09-28T03:24:40.354Z,8.25
2022-09-28T03:27:09.778Z,7.25
2022-09-28T03:29:39.571Z,9.25
2022-09-28T03:32:07.897Z,9.50
2022-09-28T03:34:36.659Z,11.25
2022-09-28T03:37:05.274Z,9.50
2022-09-28T03:39:33.626Z,9.75
2022-09-28T03:42:02.607Z,9.00
2022-09-28T03:44:30.954Z,7.75
2022-09-28T03:46:59.349Z,9.75
2022-09-28T03:49:27.852Z,8.50
2022-09-28T03:51:56.236Z,10.50
2022-09-28T03:54:24.644Z,11.00
2022-09-28T03:56:52.987Z,8.00
2022-09-28T03:59:21.658Z,8.50
2022-09-28T04:01:54.072Z,9.75
2022-09-28T04:04:22.505Z,10.50
2022-09-28T04:06:50.800Z,9.00
2022-09-28T04:09:19.153Z,9.50
2022-09-28T04:17:14.559Z,8.00
2022-09-28T04:20:01.464Z,9.50
2022-09-28T04:22:35.176Z,10.25
2022-09-28T04:25:08.142Z,9.75
2022-09-28T04:28:00.371Z,9.00
2022-09-28T04:30:36.769Z,9.00
2022-09-28T04:36:02.052Z,9.00
2022-09-28T04:38:48.710Z,9.75
2022-09-28T04:41:18.870Z,9.75
2022-09-28T04:43:50.852Z,11.50
2022-09-28T04:46:20.336Z,11.25
2022-09-28T04:48:48.763Z,11.00
2022-09-28T04:51:17.068Z,8.00
2022-09-28T04:53:45.507Z,12.50
2022-09-28T04:56:15.810Z,10.25
2022-09-28T04:58:44.758Z,12.00
2022-09-28T05:01:20.838Z,10.50
2022-09-28T05:03:49.238Z,11.25
2022-09-28T05:06:18.033Z,10.50
2022-09-28T05:08:48.097Z,12.00
2022-09-28T05:11:16.951Z,13.50
2022-09-28T05:13:46.833Z,10.75
2022-09-28T05:16:19.319Z,12.50
2022-09-28T05:18:48.361Z,16.50
2022-09-28T05:21:17.434Z,10.50
2022-09-28T05:23:49.073Z,9.50
2022-09-28T05:26:17.760Z,10.50
2022-09-28T05:28:46.263Z,13.50
2022-09-28T05:31:15.379Z,14.50
2022-09-28T05:33:43.951Z,11.25
2022-09-28T05:36:12.655Z,15.50
2022-09-28T05:38:40.978Z,12.50
2022-09-28T05:41:09.355Z,13.50
2022-09-28T05:43:39.386Z,13.50
2022-09-28T05:46:08.165Z,13.25
2022-09-28T05:48:36.774Z,10.50
2022-09-28T05:51:05.416Z,13.50
2022-09-28T05:53:33.837Z,14.25
2022-09-28T05:56:02.580Z,10.00
2022-09-28T05:58:30.978Z,12.00
2022-09-28T06:00:59.802Z,11.25
2022-09-28T06:03:28.670Z,12.50
2022-09-28T06:05:57.030Z,12.00
2022-09-28T06:08:25.424Z,9.50
2022-09-28T06:10:53.747Z,11.00
2022-09-28T06:13:22.211Z,10.50
2022-09-28T06:15:51.017Z,10.00
2022-09-28T06:18:19.400Z,11.00
2022-09-28T06:20:47.814Z,11.50
2022-09-28T06:23:16.608Z,10.25
2022-09-28T06:25:45.202Z,7.75
2022-09-28T06:28:15.836Z,12.75
2022-09-28T06:30:45.963Z,9.50
2022-09-28T06:33:15.974Z,13.00
2022-09-28T06:35:44.663Z,10.00
2022-09-28T06:38:13.744Z,14.00
2022-09-28T06:40:42.190Z,12.50
2022-09-28T06:43:16.304Z,12.25
2022-09-28T06:45:45.210Z,11.00
2022-09-28T06:48:14.431Z,11.75
2022-09-28T06:50:42.957Z,14.25
2022-09-28T06:53:15.896Z,16.50
2022-09-28T06:55:50.077Z,12.00
2022-09-28T06:58:20.710Z,11.00
2022-09-28T07:00:52.506Z,13.00
2022-09-28T07:03:23.205Z,13.00
2022-09-28T07:05:54.838Z,13.75
2022-09-28T07:08:25.947Z,11.25
2022-09-28T07:10:58.614Z,12.25
2022-09-28T07:13:50.723Z,13.75
2022-09-28T07:16:24.101Z,7.75
2022-09-28T07:18:55.062Z,11.25
2022-09-28T07:21:29.956Z,11.00
2022-09-28T07:23:58.964Z,16.25
2022-09-28T07:26:27.308Z,10.50
2022-09-28T07:28:56.770Z,13.75
2022-09-28T07:31:26.179Z,10.00
2022-09-28T07:33:54.807Z,9.75
2022-09-28T07:36:23.726Z,11.75
2022-09-28T07:38:52.267Z,11.00
2022-09-28T07:41:33.054Z,13.50
2022-09-28T07:44:07.795Z,11.00
2022-09-28T07:46:37.061Z,11.25
2022-09-28T07:49:09.813Z,11.50
2022-09-28T07:51:40.764Z,12.50
2022-09-28T07:54:09.146Z,13.00
2022-09-28T07:56:37.569Z,12.00
2022-09-28T07:59:05.964Z,9.00
2022-09-28T08:01:34.379Z,11.75
2022-09-28T08:04:02.994Z,15.25
2022-09-28T08:06:32.305Z,10.50
2022-09-28T08:09:02.711Z,14.25
2022-09-28T08:11:31.185Z,13.00
2022-09-28T08:14:01.127Z,13.00
2022-09-28T08:16:31.323Z,10.50
2022-09-28T08:18:59.715Z,10.25
2022-09-28T08:21:46.168Z,13.25
2022-09-28T08:24:20.094Z,12.25
2022-09-28T08:26:48.582Z,13.75
2022-09-28T08:29:17.906Z,11.00
2022-09-28T08:31:49.278Z,14.25
2022-09-28T08:34:18.340Z,13.50
2022-09-28T08:36:46.738Z,11.00
2022-09-28T08:39:15.185Z,11.50
2022-09-28T08:42:16.793Z,11.75
2022-09-28T08:44:49.601Z,7.25
2022-09-28T08:48:31.541Z,10.25
2022-09-28T08:51:12.197Z,12.50
2022-09-28T08:54:11.758Z,9.75
2022-09-28T08:56:53.050Z,11.50
2022-09-28T08:59:26.353Z,12.50
2022-09-28T09:02:02.255Z,12.00
2022-09-28T09:04:34.332Z,9.75
2022-09-28T09:07:38.040Z,11.00
2022-09-28T09:10:21.770Z,14.25
2022-09-28T09:13:05.169Z,12.25
2022-09-28T09:15:57.177Z,11.50
2022-09-28T09:18:48.495Z,11.00
2022-09-28T09:21:36.381Z,10.75
2022-09-28T09:24:28.125Z,11.00
2022-09-28T09:27:19.223Z,14.00
2022-09-28T09:30:02.150Z,11.75
2022-09-28T09:32:48.446Z,11.00
2022-09-28T09:35:42.636Z,9.25
2022-09-28T09:38:29.490Z,11.50
2022-09-28T09:41:17.780Z,12.25
2022-09-28T09:44:03.809Z,11.75
2022-09-28T09:46:50.924Z,9.75
2022-09-28T09:49:52.981Z,12.00
2022-09-28T09:52:56.622Z,10.50
2022-09-28T09:56:01.634Z,12.00
2022-09-28T09:58:37.748Z,12.75
2022-09-28T10:01:14.743Z,14.25
2022-09-28T10:03:49.773Z,12.00
2022-09-28T10:06:40.446Z,10.00
2022-09-28T10:09:19.553Z,8.00
2022-09-28T10:11:51.314Z,10.50
2022-09-28T10:14:25.028Z,11.00
2022-09-28T10:17:02.411Z,10.25
2022-09-28T10:19:35.018Z,12.00
2022-09-28T10:22:07.016Z,9.25
2022-09-28T10:24:44.770Z,13.50
2022-09-28T10:27:20.260Z,11.50
2022-09-28T10:30:01.133Z,10.50
2022-09-28T10:32:39.968Z,12.00
2022-09-28T10:35:20.172Z,10.00
2022-09-28T10:38:15.455Z,11.25
2022-09-28T10:40:50.529Z,9.25
2022-09-28T10:43:25.095Z,10.25
2022-09-28T10:46:13.493Z,9.75
2022-09-28T10:49:02.209Z,10.50
2022-09-28T10:51:46.049Z,12.00
2022-09-28T10:54:19.629Z,10.75
2022-09-28T10:56:49.078Z,10.00
2022-09-28T10:59:32.800Z,11.50
2022-09-28T11:02:05.482Z,10.50
2022-09-28T11:04:42.902Z,11.50
2022-09-28T11:07:25.279Z,10.50
2022-09-28T11:09:57.162Z,15.00
2022-09-28T11:12:28.944Z,12.50
2022-09-28T11:15:07.263Z,11.75
2022-09-28T11:17:43.003Z,12.50
2022-09-28T11:20:28.359Z,11.75
2022-09-28T11:23:16.641Z,12.75
2022-09-28T11:25:56.389Z,9.75
2022-09-28T11:28:30.720Z,13.00
2022-09-28T11:31:00.214Z,11.50
2022-09-28T11:33:33.967Z,12.75
2022-09-28T11:36:18.583Z,13.75
2022-09-28T11:39:06.067Z,13.75
2022-09-28T11:41:52.713Z,11.00
2022-09-28T11:44:33.472Z,11.00
2022-09-28T11:47:23.171Z,9.00
2022-09-28T11:50:03.288Z,11.25
2022-09-28T11:52:56.040Z,13.25
2022-09-28T11:55:33.630Z,11.75
2022-09-28T11:58:24.672Z,13.00
2022-09-28T12:01:18.927Z,13.50
2022-09-28T12:03:58.491Z,8.50
2022-09-28T12:06:38.928Z,10.50
2022-09-28T12:09:19.416Z,15.75
2022-09-28T12:11:51.731Z,11.25
2022-09-28T12:14:28.690Z,11.25
2022-09-28T12:17:23.547Z,10.75
2022-09-28T12:20:39.739Z,13.25
2022-09-28T12:23:34.688Z,13.25
2022-09-28T12:26:43.433Z,11.75
2022-09-28T12:29:22.171Z,14.00
2022-09-28T12:32:00.261Z,13.25
2022-09-28T12:34:28.804Z,13.25
2022-09-28T12:37:28.752Z,11.75
2022-09-28T12:40:11.894Z,11.50
2022-09-28T12:43:12.926Z,10.00
2022-09-28T12:46:11.027Z,16.00
2022-09-28T12:49:43.648Z,10.50
2022-09-28T12:51:54.879Z,8.50
2022-09-28T12:54:54.269Z,10.50
2022-09-28T12:57:50.937Z,11.25
2022-09-28T13:00:26.219Z,11.50
2022-09-28T13:03:13.288Z,11.00
2022-09-28T13:05:47.372Z,11.00
2022-09-28T13:08:47.394Z,13.00
2022-09-28T13:11:55.418Z,13.50
2022-09-28T13:14:32.697Z,12.50
2022-09-28T13:17:12.912Z,15.75
2022-09-28T13:19:49.641Z,13.50
2022-09-28T13:22:44.190Z,12.25
2022-09-28T13:25:19.167Z,14.25
2022-09-28T13:28:01.278Z,12.50
2022-09-28T13:30:30.193Z,14.50
2022-09-28T13:33:02.156Z,17.00
2022-09-28T13:35:31.336Z,12.50
2022-09-28T13:38:20.652Z,13.25
2022-09-28T13:41:07.648Z,15.00
2022-09-28T13:43:46.257Z,13.00
2022-09-28T13:46:29.873Z,17.00
2022-09-28T13:49:10.237Z,14.50
2022-09-28T13:51:58.275Z,14.00
2022-09-28T13:54:54.674Z,13.00
2022-09-28T13:57:44.797Z,15.00
2022-09-28T14:00:13.433Z,15.50
2022-09-28T14:03:19.243Z,14.25
2022-09-28T14:06:13.375Z,11.50
2022-09-28T14:08:53.960Z,16.00
2022-09-28T14:11:37.709Z,13.50
2022-09-28T14:14:12.880Z,14.50
2022-09-28T14:16:43.575Z,14.75
2022-09-28T14:19:18.601Z,10.00
2022-09-28T14:22:13.174Z,16.00
2022-09-28T14:24:56.660Z,14.25
2022-09-28T14:27:48.146Z,10.00
2022-09-28T14:30:16.427Z,10.75
2022-09-28T14:32:57.145Z,11.75
2022-09-28T14:35:32.356Z,12.75
2022-09-28T14:38:24.698Z,15.00
2022-09-28T14:41:26.723Z,12.75
2022-09-28T14:44:09.128Z,12.25
2022-09-28T14:46:44.321Z,10.50
2022-09-28T14:49:19.523Z,12.50
2022-09-28T14:51:57.208Z,15.00
2022-09-28T14:54:46.904Z,10.75
2022-09-28T14:57:21.876Z,14.00
2022-09-28T14:59:50.370Z,13.25
2022-09-28T15:02:31.217Z,15.00
2022-09-28T15:05:08.830Z,16.25
2022-09-28T15:07:50.552Z,14.00
2022-09-28T15:10:38.240Z,11.50
2022-09-28T15:13:27.482Z,15.50
2022-09-28T15:16:12.445Z,13.50
2022-09-28T15:18:46.726Z,14.25
2022-09-28T15:21:15.781Z,15.00
2022-09-28T15:23:46.293Z,14.50
2022-09-28T15:26:32.035Z,14.25
2022-09-28T15:29:04.244Z,18.25
2022-09-28T15:31:36.660Z,12.25
2022-09-28T15:34:23.683Z,13.25
2022-09-28T15:36:52.235Z,15.25
2022-09-28T15:39:25.741Z,12.00
2022-09-28T15:41:54.497Z,13.50
2022-09-28T15:44:37.512Z,14.00
2022-09-28T15:47:11.616Z,13.50
2022-09-28T15:49:46.364Z,15.50
2022-09-28T15:52:37.038Z,12.00
2022-09-28T15:55:43.672Z,12.75
2022-09-28T15:58:22.809Z,11.75
2022-09-28T16:01:12.942Z,16.25
2022-09-28T16:03:41.403Z,15.50
2022-09-28T16:06:11.669Z,11.75
2022-09-28T16:08:44.531Z,13.00
2022-09-28T16:11:28.299Z,15.50
2022-09-28T16:14:08.306Z,11.75
2022-09-28T16:16:52.682Z,11.75
2022-09-28T16:19:27.494Z,13.25
2022-09-28T16:22:07.375Z,13.50
2022-09-28T16:24:40.492Z,11.50
2022-09-28T16:27:41.319Z,12.50
2022-09-28T16:30:29.779Z,12.25
2022-09-28T16:33:03.816Z,12.00
2022-09-28T16:35:44.050Z,16.50
2022-09-28T16:38:18.113Z,10.25
2022-09-28T16:40:53.793Z,13.25
2022-09-28T16:43:27.726Z,12.75
2022-09-28T16:46:05.794Z,11.25
2022-09-28T16:48:38.456Z,11.75
2022-09-28T16:51:07.166Z,16.75
2022-09-28T16:53:53.762Z,16.25
2022-09-28T16:56:22.757Z,15.50
2022-09-28T16:58:51.782Z,17.50
2022-09-28T17:01:20.554Z,18.25
2022-09-28T17:03:51.037Z,15.75
2022-09-28T17:06:22.343Z,15.00
2022-09-28T17:08:50.671Z,17.75
2022-09-28T17:11:24.562Z,18.50
2022-09-28T17:13:59.856Z,13.00
2022-09-28T17:17:02.379Z,14.75
2022-09-28T17:19:24.261Z,15.25
2022-09-28T17:21:54.285Z,17.25
2022-09-28T17:24:22.839Z,17.00
2022-09-28T17:26:53.111Z,16.50
2022-09-28T17:29:21.695Z,16.75
2022-09-28T17:31:50.079Z,14.75
2022-09-28T17:34:18.991Z,15.25
2022-09-28T17:36:48.001Z,13.00
2022-09-28T17:39:19.579Z,15.75
2022-09-28T17:41:48.109Z,15.50
2022-09-28T17:44:16.894Z,17.00
2022-09-28T17:46:49.435Z,16.50
2022-09-28T17:49:18.252Z,11.00
2022-09-28T17:51:46.667Z,16.75
2022-09-28T17:54:17.639Z,13.50
2022-09-28T17:56:47.139Z,15.75
2022-09-28T17:59:18.682Z,13.00
2022-09-28T18:01:47.216Z,15.75
2022-09-28T18:04:46.975Z,17.50
2022-09-28T18:07:07.469Z,14.75
2022-09-28T18:09:35.849Z,12.00
2022-09-28T18:12:07.365Z,15.00
2022-09-28T18:14:36.773Z,14.75
2022-09-28T18:17:05.437Z,14.00
2022-09-28T18:19:33.743Z,14.50
2022-09-28T18:22:02.576Z,17.75
2022-09-28T18:24:33.259Z,15.75
2022-09-28T18:27:02.045Z,14.75
2022-09-28T18:29:33.334Z,14.00
2022-09-28T18:32:02.970Z,13.25
2022-09-28T18:34:31.492Z,16.25
2022-09-28T18:36:59.917Z,13.75
2022-09-28T18:39:28.701Z,15.00
2022-09-28T18:41:57.208Z,17.00
2022-09-28T18:44:25.835Z,18.25
2022-09-28T18:46:54.303Z,18.25
2022-09-28T18:49:24.207Z,16.25
2022-09-28T18:51:53.248Z,16.50
2022-09-28T18:54:21.644Z,16.25
2022-09-28T18:56:52.628Z,14.50
2022-09-28T18:59:21.996Z,16.00
2022-09-28T19:01:51.711Z,14.25
2022-09-28T19:04:25.933Z,13.50
2022-09-28T19:07:00.215Z,18.25
2022-09-28T19:09:31.650Z,12.50
2022-09-28T19:12:00.690Z,13.25
2022-09-28T19:14:29.141Z,17.25
2022-09-28T19:16:57.639Z,15.75
2022-09-28T19:19:29.621Z,15.25
2022-09-28T19:21:57.959Z,15.25
2022-09-28T19:24:26.873Z,16.25
2022-09-28T19:26:55.224Z,14.75
2022-09-28T19:29:24.839Z,11.75
2022-09-28T19:31:53.750Z,16.50
2022-09-28T19:34:25.702Z,16.75
2022-09-28T19:36:54.952Z,14.75
2022-09-28T19:39:23.375Z,17.25
2022-09-28T19:41:58.823Z,16.50
2022-09-28T19:44:29.464Z,13.50
2022-09-28T19:47:09.745Z,13.75
2022-09-28T19:49:39.997Z,13.00
2022-09-28T19:52:20.942Z,11.25
2022-09-28T19:55:01.180Z,12.25
2022-09-28T19:57:32.686Z,11.00
2022-09-28T20:00:03.417Z,16.00
2022-09-28T20:02:35.319Z,15.00
2022-09-28T20:05:04.335Z,12.75
2022-09-28T20:07:34.319Z,13.50
2022-09-28T20:10:02.826Z,13.25
2022-09-28T20:12:31.162Z,13.50
2022-09-28T20:15:01.156Z,14.00
2022-09-28T20:17:29.688Z,11.00
2022-09-28T20:19:58.554Z,14.75
2022-09-28T20:22:27.429Z,10.50
2022-09-28T20:24:58.499Z,13.00
2022-09-28T20:27:28.021Z,13.00
2022-09-28T20:29:57.486Z,11.75
2022-09-28T20:32:30.387Z,13.00
2022-09-28T20:34:58.852Z,13.50
2022-09-28T20:37:27.439Z,15.50
2022-09-28T20:39:56.229Z,14.00
2022-09-28T20:42:29.835Z,12.25
2022-09-28T20:44:58.506Z,13.75
2022-09-28T20:47:27.118Z,13.50
2022-09-28T20:49:55.505Z,13.25
2022-09-28T20:52:24.356Z,17.00
2022-09-28T20:54:52.910Z,11.50
2022-09-28T20:57:22.244Z,15.00
2022-09-28T20:59:54.480Z,16.50
2022-09-28T21:02:23.527Z,12.75
2022-09-28T21:04:51.995Z,13.00
2022-09-28T21:07:20.427Z,11.75
2022-09-28T21:09:49.384Z,11.50
2022-09-28T21:12:20.259Z,12.25
2022-09-28T21:14:48.558Z,11.25
2022-09-28T21:17:17.122Z,14.00
2022-09-28T21:19:45.573Z,13.00
2022-09-28T21:22:14.238Z,11.25
2022-09-28T21:24:42.703Z,22.00
2022-09-28T21:27:11.154Z,17.75
2022-09-28T21:29:39.562Z,13.25
2022-09-28T21:32:09.107Z,11.50
2022-09-28T21:34:37.491Z,12.25
2022-09-28T21:37:05.932Z,11.25
2022-09-28T21:39:34.309Z,11.00
2022-09-28T21:42:02.754Z,12.25
2022-09-28T21:44:31.209Z,12.25
2022-09-28T21:46:59.661Z,11.75
2022-09-28T21:49:28.152Z,12.25
2022-09-28T21:51:56.573Z,10.25
2022-09-28T21:54:24.972Z,11.25
2022-09-28T21:56:53.627Z,14.75
2022-09-28T21:59:21.989Z,14.00
2022-09-28T22:01:50.586Z,16.50
2022-09-28T22:04:19.124Z,14.25
2022-09-28T22:06:47.591Z,12.50
2022-09-28T22:09:15.996Z,10.75
2022-09-28T22:11:44.429Z,11.00
2022-09-28T22:14:13.044Z,9.25
2022-09-28T22:16:41.956Z,9.50
2022-09-28T22:19:10.658Z,9.50
2022-09-28T22:21:39.923Z,11.50
2022-09-28T22:24:08.994Z,8.25
2022-09-28T22:26:38.832Z,11.50
2022-09-28T22:29:10.257Z,9.50
2022-09-28T22:31:41.566Z,8.25
2022-09-28T22:34:10.958Z,7.00
2022-09-28T22:36:39.413Z,7.50
2022-09-28T22:39:07.776Z,9.00
2022-09-28T22:41:36.561Z,9.00
2022-09-28T22:44:04.988Z,8.00
2022-09-28T22:46:33.573Z,7.00
2022-09-28T22:49:02.776Z,8.75
2022-09-28T22:51:32.406Z,6.50
2022-09-28T22:54:00.930Z,7.75
2022-09-28T22:56:29.685Z,7.50
2022-09-28T22:58:58.248Z,6.50
2022-09-28T23:01:29.256Z,7.00
2022-09-28T23:03:59.066Z,8.00
2022-09-28T23:06:29.967Z,7.00
2022-09-28T23:08:58.428Z,6.50
2022-09-28T23:11:27.268Z,5.25
2022-09-28T23:13:58.217Z,6.00
2022-09-28T23:16:27.695Z,6.00
2022-09-28T23:18:56.905Z,7.00
2022-09-28T23:21:27.628Z,7.50
2022-09-28T23:23:59.450Z,5.00
2022-09-28T23:26:31.057Z,6.00
2022-09-28T23:29:00.839Z,5.75
2022-09-28T23:31:32.571Z,6.25
2022-09-28T23:34:05.672Z,5.00
2022-09-28T23:36:34.911Z,3.00
2022-09-28T23:39:03.838Z,5.50
2022-09-28T23:41:32.181Z,5.00
2022-09-28T23:44:00.575Z,4.00
2022-09-28T23:46:29.190Z,5.25
2022-09-28T23:48:57.591Z,6.00
2022-09-28T23:51:26.004Z,3.75
2022-09-28T23:53:54.510Z,5.50
2022-09-28T23:56:22.934Z,4.25
2022-09-28T23:58:51.321Z,4.00
